sensor_id;sensor_type;location;lat;lon;timestamp;P1;durP1;ratioP1;P2;durP2;ratioP2
66380;SDS011;53177;52.648;1.214;2023-01-24T00:01:08;25.43;;;12.50;;
66380;SDS011;53177;52.648;1.214;2023-01-24T00:03:33;26.00;;;11.70;;
66380;SDS011;53177;52.648;1.214;2023-01-24T00:05:59;22.83;;;11.15;;
66380;SDS011;53177;52.648;1.214;2023-01-24T00:08:24;22.73;;;11.07;;
66380;SDS011;53177;52.648;1.214;2023-01-24T00:11:09;20.07;;;9.90;;
66380;SDS011;53177;52.648;1.214;2023-01-24T00:13:36;18.27;;;9.63;;
66380;SDS011;53177;52.648;1.214;2023-01-24T00:16:07;20.23;;;9.88;;
66380;SDS011;53177;52.648;1.214;2023-01-24T00:18:36;20.90;;;9.95;;
66380;SDS011;53177;52.648;1.214;2023-01-24T00:21:02;19.50;;;9.33;;
66380;SDS011;53177;52.648;1.214;2023-01-24T00:23:29;18.70;;;8.60;;
66380;SDS011;53177;52.648;1.214;2023-01-24T00:25:55;21.40;;;10.23;;
66380;SDS011;53177;52.648;1.214;2023-01-24T00:28:20;24.73;;;10.30;;
66380;SDS011;53177;52.648;1.214;2023-01-24T00:30:46;19.08;;;9.20;;
66380;SDS011;53177;52.648;1.214;2023-01-24T00:33:11;23.00;;;9.43;;
66380;SDS011;53177;52.648;1.214;2023-01-24T00:35:36;20.03;;;9.37;;
66380;SDS011;53177;52.648;1.214;2023-01-24T00:38:02;21.90;;;10.33;;
66380;SDS011;53177;52.648;1.214;2023-01-24T00:40:28;21.47;;;10.10;;
66380;SDS011;53177;52.648;1.214;2023-01-24T00:42:54;20.73;;;10.27;;
66380;SDS011;53177;52.648;1.214;2023-01-24T00:45:19;18.60;;;9.30;;
66380;SDS011;53177;52.648;1.214;2023-01-24T00:47:45;22.90;;;11.13;;
66380;SDS011;53177;52.648;1.214;2023-01-24T00:50:12;24.50;;;11.67;;
66380;SDS011;53177;52.648;1.214;2023-01-24T00:52:38;28.58;;;12.38;;
66380;SDS011;53177;52.648;1.214;2023-01-24T00:55:03;24.33;;;11.73;;
66380;SDS011;53177;52.648;1.214;2023-01-24T00:57:29;30.70;;;12.77;;
66380;SDS011;53177;52.648;1.214;2023-01-24T00:59:54;27.80;;;12.50;;
66380;SDS011;53177;52.648;1.214;2023-01-24T01:02:20;28.17;;;12.77;;
66380;SDS011;53177;52.648;1.214;2023-01-24T01:04:45;27.85;;;12.93;;
66380;SDS011;53177;52.648;1.214;2023-01-24T01:07:11;30.53;;;13.80;;
66380;SDS011;53177;52.648;1.214;2023-01-24T01:09:36;31.77;;;13.70;;
66380;SDS011;53177;52.648;1.214;2023-01-24T01:12:02;27.42;;;12.60;;
66380;SDS011;53177;52.648;1.214;2023-01-24T01:14:27;31.57;;;14.83;;
66380;SDS011;53177;52.648;1.214;2023-01-24T01:16:53;35.57;;;15.43;;
66380;SDS011;53177;52.648;1.214;2023-01-24T01:19:18;34.50;;;15.30;;
66380;SDS011;53177;52.648;1.214;2023-01-24T01:21:44;35.47;;;16.30;;
66380;SDS011;53177;52.648;1.214;2023-01-24T01:24:09;39.07;;;16.70;;
66380;SDS011;53177;52.648;1.214;2023-01-24T01:26:35;35.28;;;15.40;;
66380;SDS011;53177;52.648;1.214;2023-01-24T01:29:01;30.73;;;15.20;;
66380;SDS011;53177;52.648;1.214;2023-01-24T01:31:26;33.43;;;15.63;;
66380;SDS011;53177;52.648;1.214;2023-01-24T01:33:52;33.93;;;15.33;;
66380;SDS011;53177;52.648;1.214;2023-01-24T01:36:17;32.72;;;16.17;;
66380;SDS011;53177;52.648;1.214;2023-01-24T01:38:42;30.83;;;15.67;;
66380;SDS011;53177;52.648;1.214;2023-01-24T01:41:08;33.47;;;16.10;;
66380;SDS011;53177;52.648;1.214;2023-01-24T01:43:35;34.38;;;16.67;;
66380;SDS011;53177;52.648;1.214;2023-01-24T01:48:46;32.58;;;16.13;;
66380;SDS011;53177;52.648;1.214;2023-01-24T01:51:17;35.20;;;15.10;;
66380;SDS011;53177;52.648;1.214;2023-01-24T01:53:45;30.40;;;14.90;;
66380;SDS011;53177;52.648;1.214;2023-01-24T01:57:01;33.22;;;16.25;;
66380;SDS011;53177;52.648;1.214;2023-01-24T01:59:07;34.35;;;15.77;;
66380;SDS011;53177;52.648;1.214;2023-01-24T02:01:38;31.58;;;15.23;;
66380;SDS011;53177;52.648;1.214;2023-01-24T02:04:07;31.43;;;15.53;;
66380;SDS011;53177;52.648;1.214;2023-01-24T02:06:45;32.42;;;15.80;;
66380;SDS011;53177;52.648;1.214;2023-01-24T02:09:18;30.55;;;14.95;;
66380;SDS011;53177;52.648;1.214;2023-01-24T02:11:48;31.07;;;14.50;;
66380;SDS011;53177;52.648;1.214;2023-01-24T02:14:17;31.63;;;15.15;;
66380;SDS011;53177;52.648;1.214;2023-01-24T02:17:04;26.50;;;13.30;;
66380;SDS011;53177;52.648;1.214;2023-01-24T02:19:34;25.35;;;12.88;;
66380;SDS011;53177;52.648;1.214;2023-01-24T02:22:17;30.33;;;14.20;;
66380;SDS011;53177;52.648;1.214;2023-01-24T02:25:25;29.35;;;13.88;;
66380;SDS011;53177;52.648;1.214;2023-01-24T02:27:56;27.65;;;13.75;;
66380;SDS011;53177;52.648;1.214;2023-01-24T02:30:24;26.80;;;13.13;;
66380;SDS011;53177;52.648;1.214;2023-01-24T02:32:50;31.17;;;14.57;;
66380;SDS011;53177;52.648;1.214;2023-01-24T02:35:21;28.58;;;14.52;;
66380;SDS011;53177;52.648;1.214;2023-01-24T02:37:51;27.17;;;13.67;;
66380;SDS011;53177;52.648;1.214;2023-01-24T02:40:17;27.65;;;13.68;;
66380;SDS011;53177;52.648;1.214;2023-01-24T02:42:43;29.80;;;14.25;;
66380;SDS011;53177;52.648;1.214;2023-01-24T02:45:10;32.83;;;14.82;;
66380;SDS011;53177;52.648;1.214;2023-01-24T02:47:43;28.95;;;14.88;;
66380;SDS011;53177;52.648;1.214;2023-01-24T02:50:12;32.33;;;15.80;;
66380;SDS011;53177;52.648;1.214;2023-01-24T02:52:40;31.85;;;15.80;;
66380;SDS011;53177;52.648;1.214;2023-01-24T02:55:24;31.92;;;15.27;;
66380;SDS011;53177;52.648;1.214;2023-01-24T02:57:49;33.13;;;15.20;;
66380;SDS011;53177;52.648;1.214;2023-01-24T03:00:34;31.43;;;15.10;;
66380;SDS011;53177;52.648;1.214;2023-01-24T03:03:01;31.63;;;15.35;;
66380;SDS011;53177;52.648;1.214;2023-01-24T03:05:27;28.67;;;14.30;;
66380;SDS011;53177;52.648;1.214;2023-01-24T03:08:07;32.28;;;15.07;;
66380;SDS011;53177;52.648;1.214;2023-01-24T03:10:33;30.10;;;15.15;;
66380;SDS011;53177;52.648;1.214;2023-01-24T03:12:59;30.03;;;14.43;;
66380;SDS011;53177;52.648;1.214;2023-01-24T03:15:44;27.63;;;14.18;;
66380;SDS011;53177;52.648;1.214;2023-01-24T03:18:28;29.45;;;14.23;;
66380;SDS011;53177;52.648;1.214;2023-01-24T03:21:12;31.23;;;15.75;;
66380;SDS011;53177;52.648;1.214;2023-01-24T03:23:56;33.08;;;14.75;;
66380;SDS011;53177;52.648;1.214;2023-01-24T03:26:40;31.63;;;14.30;;
66380;SDS011;53177;52.648;1.214;2023-01-24T03:29:24;30.63;;;14.85;;
66380;SDS011;53177;52.648;1.214;2023-01-24T03:32:08;34.13;;;16.08;;
66380;SDS011;53177;52.648;1.214;2023-01-24T03:34:52;32.53;;;14.75;;
66380;SDS011;53177;52.648;1.214;2023-01-24T03:37:18;30.73;;;15.20;;
66380;SDS011;53177;52.648;1.214;2023-01-24T03:40:04;34.80;;;15.65;;
66380;SDS011;53177;52.648;1.214;2023-01-24T03:42:33;30.67;;;15.75;;
66380;SDS011;53177;52.648;1.214;2023-01-24T03:44:59;30.00;;;15.07;;
66380;SDS011;53177;52.648;1.214;2023-01-24T03:47:25;30.17;;;15.45;;
66380;SDS011;53177;52.648;1.214;2023-01-24T03:49:51;32.97;;;15.45;;
66380;SDS011;53177;52.648;1.214;2023-01-24T03:52:35;29.00;;;14.47;;
66380;SDS011;53177;52.648;1.214;2023-01-24T03:55:01;28.58;;;13.88;;
66380;SDS011;53177;52.648;1.214;2023-01-24T03:57:27;30.10;;;13.93;;
66380;SDS011;53177;52.648;1.214;2023-01-24T03:59:53;34.38;;;15.65;;
66380;SDS011;53177;52.648;1.214;2023-01-24T04:02:19;28.73;;;14.30;;
66380;SDS011;53177;52.648;1.214;2023-01-24T04:04:44;27.25;;;14.77;;
66380;SDS011;53177;52.648;1.214;2023-01-24T04:07:29;31.02;;;14.52;;
66380;SDS011;53177;52.648;1.214;2023-01-24T04:09:55;29.15;;;14.02;;
66380;SDS011;53177;52.648;1.214;2023-01-24T04:12:23;25.75;;;11.95;;
66380;SDS011;53177;52.648;1.214;2023-01-24T04:14:48;29.97;;;15.50;;
66380;SDS011;53177;52.648;1.214;2023-01-24T04:17:13;28.20;;;14.13;;
66380;SDS011;53177;52.648;1.214;2023-01-24T04:19:39;27.37;;;13.53;;
66380;SDS011;53177;52.648;1.214;2023-01-24T04:22:05;29.17;;;14.32;;
66380;SDS011;53177;52.648;1.214;2023-01-24T04:24:30;28.33;;;14.13;;
66380;SDS011;53177;52.648;1.214;2023-01-24T04:26:56;33.67;;;15.93;;
66380;SDS011;53177;52.648;1.214;2023-01-24T04:29:21;33.67;;;16.15;;
66380;SDS011;53177;52.648;1.214;2023-01-24T04:31:46;29.85;;;14.82;;
66380;SDS011;53177;52.648;1.214;2023-01-24T04:34:12;32.37;;;15.87;;
66380;SDS011;53177;52.648;1.214;2023-01-24T04:36:37;32.80;;;15.70;;
66380;SDS011;53177;52.648;1.214;2023-01-24T04:39:03;37.67;;;16.57;;
66380;SDS011;53177;52.648;1.214;2023-01-24T04:41:28;33.58;;;15.68;;
66380;SDS011;53177;52.648;1.214;2023-01-24T04:43:54;32.63;;;16.60;;
66380;SDS011;53177;52.648;1.214;2023-01-24T04:46:20;34.10;;;16.93;;
66380;SDS011;53177;52.648;1.214;2023-01-24T04:48:45;33.83;;;17.95;;
66380;SDS011;53177;52.648;1.214;2023-01-24T04:51:11;30.53;;;14.30;;
66380;SDS011;53177;52.648;1.214;2023-01-24T04:53:39;33.83;;;16.93;;
66380;SDS011;53177;52.648;1.214;2023-01-24T04:56:06;34.60;;;16.63;;
66380;SDS011;53177;52.648;1.214;2023-01-24T04:58:32;32.80;;;16.42;;
66380;SDS011;53177;52.648;1.214;2023-01-24T05:00:58;29.85;;;14.70;;
66380;SDS011;53177;52.648;1.214;2023-01-24T05:03:24;33.83;;;16.10;;
66380;SDS011;53177;52.648;1.214;2023-01-24T05:05:50;32.90;;;15.40;;
66380;SDS011;53177;52.648;1.214;2023-01-24T05:08:16;33.90;;;16.27;;
66380;SDS011;53177;52.648;1.214;2023-01-24T05:10:41;34.70;;;17.35;;
66380;SDS011;53177;52.648;1.214;2023-01-24T05:13:07;32.53;;;16.40;;
66380;SDS011;53177;52.648;1.214;2023-01-24T05:15:32;32.27;;;15.73;;
66380;SDS011;53177;52.648;1.214;2023-01-24T05:17:58;34.53;;;16.60;;
66380;SDS011;53177;52.648;1.214;2023-01-24T05:20:23;29.75;;;15.32;;
66380;SDS011;53177;52.648;1.214;2023-01-24T05:22:50;33.22;;;17.00;;
66380;SDS011;53177;52.648;1.214;2023-01-24T05:25:15;32.90;;;16.50;;
66380;SDS011;53177;52.648;1.214;2023-01-24T05:27:42;33.35;;;16.80;;
66380;SDS011;53177;52.648;1.214;2023-01-24T05:30:08;33.50;;;16.80;;
66380;SDS011;53177;52.648;1.214;2023-01-24T05:32:34;36.60;;;18.52;;
66380;SDS011;53177;52.648;1.214;2023-01-24T05:34:59;36.97;;;18.67;;
66380;SDS011;53177;52.648;1.214;2023-01-24T05:37:25;37.30;;;17.83;;
66380;SDS011;53177;52.648;1.214;2023-01-24T05:39:50;34.33;;;18.13;;
66380;SDS011;53177;52.648;1.214;2023-01-24T05:42:16;36.30;;;18.10;;
66380;SDS011;53177;52.648;1.214;2023-01-24T05:44:41;37.13;;;18.47;;
66380;SDS011;53177;52.648;1.214;2023-01-24T05:47:06;36.23;;;18.83;;
66380;SDS011;53177;52.648;1.214;2023-01-24T05:49:32;38.25;;;18.58;;
66380;SDS011;53177;52.648;1.214;2023-01-24T05:51:57;41.40;;;19.63;;
66380;SDS011;53177;52.648;1.214;2023-01-24T05:54:23;37.77;;;19.73;;
66380;SDS011;53177;52.648;1.214;2023-01-24T05:56:48;39.83;;;20.10;;
66380;SDS011;53177;52.648;1.214;2023-01-24T05:59:14;41.60;;;20.17;;
66380;SDS011;53177;52.648;1.214;2023-01-24T06:01:39;38.60;;;19.45;;
66380;SDS011;53177;52.648;1.214;2023-01-24T06:04:05;41.10;;;19.57;;
66380;SDS011;53177;52.648;1.214;2023-01-24T06:06:30;41.20;;;20.00;;
66380;SDS011;53177;52.648;1.214;2023-01-24T06:08:56;40.93;;;19.43;;
66380;SDS011;53177;52.648;1.214;2023-01-24T06:11:22;38.17;;;18.80;;
66380;SDS011;53177;52.648;1.214;2023-01-24T06:13:49;39.63;;;18.88;;
66380;SDS011;53177;52.648;1.214;2023-01-24T06:16:16;43.30;;;19.38;;
66380;SDS011;53177;52.648;1.214;2023-01-24T06:18:42;39.08;;;19.05;;
66380;SDS011;53177;52.648;1.214;2023-01-24T06:23:49;46.80;;;21.73;;
66380;SDS011;53177;52.648;1.214;2023-01-24T06:26:15;50.25;;;23.13;;
66380;SDS011;53177;52.648;1.214;2023-01-24T06:28:41;48.90;;;22.85;;
66380;SDS011;53177;52.648;1.214;2023-01-24T06:39:33;41.33;;;19.83;;
66380;SDS011;53177;52.648;1.214;2023-01-24T06:42:00;43.97;;;20.93;;
66380;SDS011;53177;52.648;1.214;2023-01-24T06:44:26;45.58;;;22.02;;
66380;SDS011;53177;52.648;1.214;2023-01-24T06:46:52;46.10;;;20.27;;
66380;SDS011;53177;52.648;1.214;2023-01-24T06:49:17;45.33;;;21.60;;
66380;SDS011;53177;52.648;1.214;2023-01-24T06:51:48;44.93;;;21.33;;
66380;SDS011;53177;52.648;1.214;2023-01-24T06:54:14;49.45;;;22.45;;
66380;SDS011;53177;52.648;1.214;2023-01-24T06:56:41;50.50;;;22.48;;
66380;SDS011;53177;52.648;1.214;2023-01-24T06:59:06;50.33;;;23.57;;
66380;SDS011;53177;52.648;1.214;2023-01-24T07:01:31;52.00;;;23.70;;
66380;SDS011;53177;52.648;1.214;2023-01-24T07:03:57;46.20;;;21.90;;
66380;SDS011;53177;52.648;1.214;2023-01-24T07:06:22;48.50;;;21.47;;
66380;SDS011;53177;52.648;1.214;2023-01-24T07:08:48;47.13;;;20.00;;
66380;SDS011;53177;52.648;1.214;2023-01-24T07:11:14;47.90;;;20.98;;
66380;SDS011;53177;52.648;1.214;2023-01-24T07:13:39;41.93;;;19.10;;
66380;SDS011;53177;52.648;1.214;2023-01-24T07:16:05;46.17;;;19.30;;
66380;SDS011;53177;52.648;1.214;2023-01-24T07:18:31;44.22;;;19.27;;
66380;SDS011;53177;52.648;1.214;2023-01-24T07:20:58;39.23;;;18.37;;
66380;SDS011;53177;52.648;1.214;2023-01-24T07:23:26;40.92;;;20.00;;
66380;SDS011;53177;52.648;1.214;2023-01-24T07:25:58;43.33;;;18.83;;
66380;SDS011;53177;52.648;1.214;2023-01-24T07:28:27;39.35;;;17.25;;
66380;SDS011;53177;52.648;1.214;2023-01-24T07:30:54;41.33;;;18.23;;
66380;SDS011;53177;52.648;1.214;2023-01-24T07:33:21;41.50;;;17.75;;
66380;SDS011;53177;52.648;1.214;2023-01-24T07:35:47;45.40;;;18.57;;
66380;SDS011;53177;52.648;1.214;2023-01-24T07:38:12;48.23;;;23.83;;
66380;SDS011;53177;52.648;1.214;2023-01-24T07:40:38;55.08;;;25.92;;
66380;SDS011;53177;52.648;1.214;2023-01-24T07:43:04;52.47;;;25.98;;
66380;SDS011;53177;52.648;1.214;2023-01-24T07:45:30;53.43;;;23.87;;
66380;SDS011;53177;52.648;1.214;2023-01-24T07:47:57;52.75;;;22.85;;
66380;SDS011;53177;52.648;1.214;2023-01-24T07:50:24;53.63;;;24.17;;
66380;SDS011;53177;52.648;1.214;2023-01-24T07:52:53;51.72;;;23.77;;
66380;SDS011;53177;52.648;1.214;2023-01-24T07:55:19;53.28;;;24.50;;
66380;SDS011;53177;52.648;1.214;2023-01-24T07:57:45;47.63;;;20.87;;
66380;SDS011;53177;52.648;1.214;2023-01-24T08:00:11;45.63;;;20.48;;
66380;SDS011;53177;52.648;1.214;2023-01-24T08:02:38;46.20;;;19.52;;
66380;SDS011;53177;52.648;1.214;2023-01-24T08:05:04;47.83;;;20.83;;
66380;SDS011;53177;52.648;1.214;2023-01-24T08:07:31;48.13;;;21.25;;
66380;SDS011;53177;52.648;1.214;2023-01-24T08:09:56;50.15;;;21.83;;
66380;SDS011;53177;52.648;1.214;2023-01-24T08:12:22;51.50;;;22.83;;
66380;SDS011;53177;52.648;1.214;2023-01-24T08:14:47;48.30;;;22.87;;
66380;SDS011;53177;52.648;1.214;2023-01-24T08:17:13;53.00;;;23.47;;
66380;SDS011;53177;52.648;1.214;2023-01-24T08:19:38;60.33;;;27.70;;
66380;SDS011;53177;52.648;1.214;2023-01-24T08:22:05;52.23;;;25.37;;
66380;SDS011;53177;52.648;1.214;2023-01-24T08:24:31;50.58;;;25.70;;
66380;SDS011;53177;52.648;1.214;2023-01-24T08:26:57;47.78;;;22.67;;
66380;SDS011;53177;52.648;1.214;2023-01-24T08:29:24;53.60;;;23.88;;
66380;SDS011;53177;52.648;1.214;2023-01-24T08:31:49;55.90;;;24.77;;
66380;SDS011;53177;52.648;1.214;2023-01-24T08:34:15;48.83;;;22.63;;
66380;SDS011;53177;52.648;1.214;2023-01-24T08:36:40;44.27;;;21.60;;
66380;SDS011;53177;52.648;1.214;2023-01-24T08:39:06;39.40;;;20.23;;
66380;SDS011;53177;52.648;1.214;2023-01-24T08:41:31;46.70;;;22.90;;
66380;SDS011;53177;52.648;1.214;2023-01-24T08:43:57;43.17;;;21.33;;
66380;SDS011;53177;52.648;1.214;2023-01-24T08:46:22;43.53;;;21.73;;
66380;SDS011;53177;52.648;1.214;2023-01-24T08:48:47;46.28;;;23.85;;
66380;SDS011;53177;52.648;1.214;2023-01-24T08:51:13;48.13;;;22.47;;
66380;SDS011;53177;52.648;1.214;2023-01-24T08:53:38;44.33;;;21.30;;
66380;SDS011;53177;52.648;1.214;2023-01-24T08:56:04;43.87;;;21.37;;
66380;SDS011;53177;52.648;1.214;2023-01-24T08:58:29;44.45;;;22.58;;
66380;SDS011;53177;52.648;1.214;2023-01-24T09:00:58;41.07;;;19.87;;
66380;SDS011;53177;52.648;1.214;2023-01-24T09:03:24;44.47;;;20.38;;
66380;SDS011;53177;52.648;1.214;2023-01-24T09:05:51;39.42;;;20.05;;
66380;SDS011;53177;52.648;1.214;2023-01-24T09:08:23;44.17;;;21.23;;
66380;SDS011;53177;52.648;1.214;2023-01-24T09:10:48;43.53;;;20.20;;
66380;SDS011;53177;52.648;1.214;2023-01-24T09:13:14;40.17;;;19.30;;
66380;SDS011;53177;52.648;1.214;2023-01-24T09:15:40;40.43;;;20.00;;
66380;SDS011;53177;52.648;1.214;2023-01-24T09:18:05;36.80;;;18.85;;
66380;SDS011;53177;52.648;1.214;2023-01-24T09:20:31;39.33;;;20.55;;
66380;SDS011;53177;52.648;1.214;2023-01-24T09:22:56;41.77;;;19.87;;
66380;SDS011;53177;52.648;1.214;2023-01-24T09:25:22;42.90;;;20.27;;
66380;SDS011;53177;52.648;1.214;2023-01-24T09:27:53;40.78;;;20.02;;
66380;SDS011;53177;52.648;1.214;2023-01-24T09:30:21;42.70;;;20.73;;
66380;SDS011;53177;52.648;1.214;2023-01-24T09:32:48;40.03;;;19.37;;
66380;SDS011;53177;52.648;1.214;2023-01-24T09:35:13;44.25;;;21.60;;
66380;SDS011;53177;52.648;1.214;2023-01-24T09:37:39;43.88;;;22.23;;
66380;SDS011;53177;52.648;1.214;2023-01-24T09:40:26;44.80;;;20.93;;
66380;SDS011;53177;52.648;1.214;2023-01-24T09:45:52;39.83;;;20.00;;
66380;SDS011;53177;52.648;1.214;2023-01-24T09:48:29;39.42;;;19.50;;
66380;SDS011;53177;52.648;1.214;2023-01-24T09:50:59;40.08;;;20.17;;
66380;SDS011;53177;52.648;1.214;2023-01-24T09:53:37;38.63;;;20.13;;
66380;SDS011;53177;52.648;1.214;2023-01-24T09:56:09;53.80;;;26.10;;
66380;SDS011;53177;52.648;1.214;2023-01-24T09:58:52;46.13;;;25.05;;
66380;SDS011;53177;52.648;1.214;2023-01-24T10:01:35;45.80;;;23.40;;
66380;SDS011;53177;52.648;1.214;2023-01-24T10:04:04;44.78;;;22.90;;
66380;SDS011;53177;52.648;1.214;2023-01-24T10:06:35;41.10;;;21.17;;
66380;SDS011;53177;52.648;1.214;2023-01-24T10:17:40;30.95;;;15.50;;
66380;SDS011;53177;52.648;1.214;2023-01-24T10:23:43;42.83;;;21.45;;
66380;SDS011;53177;52.648;1.214;2023-01-24T10:28:24;50.55;;;25.73;;
66380;SDS011;53177;52.648;1.214;2023-01-24T10:31:00;48.67;;;26.08;;
66380;SDS011;53177;52.648;1.214;2023-01-24T10:33:35;56.97;;;30.50;;
66380;SDS011;53177;52.648;1.214;2023-01-24T10:36:11;61.70;;;29.10;;
66380;SDS011;53177;52.648;1.214;2023-01-24T10:38:41;48.08;;;24.20;;
66380;SDS011;53177;52.648;1.214;2023-01-24T10:41:24;56.30;;;27.17;;
66380;SDS011;53177;52.648;1.214;2023-01-24T10:43:55;52.45;;;25.52;;
66380;SDS011;53177;52.648;1.214;2023-01-24T10:49:10;40.70;;;20.20;;
66380;SDS011;53177;52.648;1.214;2023-01-24T10:51:53;37.47;;;18.20;;
66380;SDS011;53177;52.648;1.214;2023-01-24T10:54:40;43.38;;;21.45;;
66380;SDS011;53177;52.648;1.214;2023-01-24T10:57:19;42.10;;;22.88;;
66380;SDS011;53177;52.648;1.214;2023-01-24T10:59:54;32.47;;;16.87;;
66380;SDS011;53177;52.648;1.214;2023-01-24T11:02:23;25.67;;;13.38;;
66380;SDS011;53177;52.648;1.214;2023-01-24T11:04:59;28.10;;;14.70;;
66380;SDS011;53177;52.648;1.214;2023-01-24T11:07:28;23.73;;;11.15;;
66380;SDS011;53177;52.648;1.214;2023-01-24T11:09:58;23.95;;;11.05;;
66380;SDS011;53177;52.648;1.214;2023-01-24T11:12:33;20.87;;;11.60;;
66380;SDS011;53177;52.648;1.214;2023-01-24T11:14:59;25.23;;;12.40;;
66380;SDS011;53177;52.648;1.214;2023-01-24T11:17:29;25.40;;;12.70;;
66380;SDS011;53177;52.648;1.214;2023-01-24T11:20:02;21.70;;;10.73;;
66380;SDS011;53177;52.648;1.214;2023-01-24T11:22:50;22.60;;;11.35;;
66380;SDS011;53177;52.648;1.214;2023-01-24T11:25:16;21.10;;;10.60;;
66380;SDS011;53177;52.648;1.214;2023-01-24T11:27:46;23.27;;;11.00;;
66380;SDS011;53177;52.648;1.214;2023-01-24T11:30:18;15.98;;;8.43;;
66380;SDS011;53177;52.648;1.214;2023-01-24T11:33:05;11.05;;;5.53;;
66380;SDS011;53177;52.648;1.214;2023-01-24T11:36:01;12.18;;;6.00;;
66380;SDS011;53177;52.648;1.214;2023-01-24T11:39:08;12.13;;;6.20;;
66380;SDS011;53177;52.648;1.214;2023-01-24T11:41:51;16.23;;;7.18;;
66380;SDS011;53177;52.648;1.214;2023-01-24T11:47:27;12.20;;;5.00;;
66380;SDS011;53177;52.648;1.214;2023-01-24T11:50:08;12.32;;;5.80;;
66380;SDS011;53177;52.648;1.214;2023-01-24T11:53:01;11.83;;;6.00;;
66380;SDS011;53177;52.648;1.214;2023-01-24T11:58:17;11.85;;;6.38;;
66380;SDS011;53177;52.648;1.214;2023-01-24T12:09:08;16.33;;;9.40;;
66380;SDS011;53177;52.648;1.214;2023-01-24T12:11:56;17.35;;;9.45;;
66380;SDS011;53177;52.648;1.214;2023-01-24T12:23:35;15.15;;;8.98;;
66380;SDS011;53177;52.648;1.214;2023-01-24T12:26:05;18.75;;;8.88;;
66380;SDS011;53177;52.648;1.214;2023-01-24T12:31:30;15.95;;;8.10;;
66380;SDS011;53177;52.648;1.214;2023-01-24T12:40:00;15.27;;;7.68;;
66380;SDS011;53177;52.648;1.214;2023-01-24T12:45:18;16.77;;;9.30;;
66380;SDS011;53177;52.648;1.214;2023-01-24T12:47:52;16.10;;;9.03;;
66380;SDS011;53177;52.648;1.214;2023-01-24T12:53:10;17.13;;;9.07;;
66380;SDS011;53177;52.648;1.214;2023-01-24T12:58:32;15.63;;;8.40;;
66380;SDS011;53177;52.648;1.214;2023-01-24T13:03:41;16.60;;;8.50;;
66380;SDS011;53177;52.648;1.214;2023-01-24T13:06:11;16.00;;;8.15;;
66380;SDS011;53177;52.648;1.214;2023-01-24T13:08:44;16.55;;;8.65;;
66380;SDS011;53177;52.648;1.214;2023-01-24T13:11:25;15.50;;;8.00;;
66380;SDS011;53177;52.648;1.214;2023-01-24T13:14:05;18.50;;;10.03;;
66380;SDS011;53177;52.648;1.214;2023-01-24T13:25:29;17.17;;;8.57;;
66380;SDS011;53177;52.648;1.214;2023-01-24T13:33:44;18.52;;;8.90;;
66380;SDS011;53177;52.648;1.214;2023-01-24T13:36:13;18.30;;;8.68;;
66380;SDS011;53177;52.648;1.214;2023-01-24T13:38:43;19.00;;;9.32;;
66380;SDS011;53177;52.648;1.214;2023-01-24T13:41:17;20.80;;;10.00;;
66380;SDS011;53177;52.648;1.214;2023-01-24T13:44:00;18.52;;;8.60;;
66380;SDS011;53177;52.648;1.214;2023-01-24T13:51:58;15.10;;;7.90;;
66380;SDS011;53177;52.648;1.214;2023-01-24T14:08:00;16.35;;;8.00;;
66380;SDS011;53177;52.648;1.214;2023-01-24T14:10:33;16.50;;;8.43;;
66380;SDS011;53177;52.648;1.214;2023-01-24T14:13:00;14.40;;;7.97;;
66380;SDS011;53177;52.648;1.214;2023-01-24T14:15:27;16.67;;;8.10;;
66380;SDS011;53177;52.648;1.214;2023-01-24T14:18:00;15.60;;;8.00;;
66380;SDS011;53177;52.648;1.214;2023-01-24T14:23:20;17.23;;;7.57;;
66380;SDS011;53177;52.648;1.214;2023-01-24T14:25:50;16.30;;;8.15;;
66380;SDS011;53177;52.648;1.214;2023-01-24T14:30:56;16.03;;;7.97;;
66380;SDS011;53177;52.648;1.214;2023-01-24T14:33:45;14.52;;;7.38;;
66380;SDS011;53177;52.648;1.214;2023-01-24T14:38:44;14.77;;;7.07;;
66380;SDS011;53177;52.648;1.214;2023-01-24T14:41:14;14.93;;;7.70;;
66380;SDS011;53177;52.648;1.214;2023-01-24T14:43:45;15.40;;;7.40;;
66380;SDS011;53177;52.648;1.214;2023-01-24T14:46:11;15.38;;;7.53;;
66380;SDS011;53177;52.648;1.214;2023-01-24T14:48:38;15.82;;;7.78;;
66380;SDS011;53177;52.648;1.214;2023-01-24T14:51:05;15.80;;;7.47;;
66380;SDS011;53177;52.648;1.214;2023-01-24T14:53:32;16.17;;;7.95;;
66380;SDS011;53177;52.648;1.214;2023-01-24T14:56:07;14.77;;;7.43;;
66380;SDS011;53177;52.648;1.214;2023-01-24T14:58:35;16.02;;;7.50;;
66380;SDS011;53177;52.648;1.214;2023-01-24T15:01:01;15.87;;;8.00;;
66380;SDS011;53177;52.648;1.214;2023-01-24T15:03:33;14.07;;;7.43;;
66380;SDS011;53177;52.648;1.214;2023-01-24T15:06:04;15.50;;;7.75;;
66380;SDS011;53177;52.648;1.214;2023-01-24T15:08:31;14.77;;;7.22;;
66380;SDS011;53177;52.648;1.214;2023-01-24T15:16:06;16.13;;;7.95;;
66380;SDS011;53177;52.648;1.214;2023-01-24T15:18:40;15.43;;;7.80;;
66380;SDS011;53177;52.648;1.214;2023-01-24T15:21:23;18.77;;;8.17;;
66380;SDS011;53177;52.648;1.214;2023-01-24T15:23:55;16.92;;;7.70;;
66380;SDS011;53177;52.648;1.214;2023-01-24T15:26:40;17.83;;;8.38;;
66380;SDS011;53177;52.648;1.214;2023-01-24T15:31:57;16.50;;;7.93;;
66380;SDS011;53177;52.648;1.214;2023-01-24T15:34:23;17.87;;;8.57;;
66380;SDS011;53177;52.648;1.214;2023-01-24T15:36:57;16.75;;;7.82;;
66380;SDS011;53177;52.648;1.214;2023-01-24T15:39:24;19.27;;;8.87;;
66380;SDS011;53177;52.648;1.214;2023-01-24T15:41:50;17.58;;;8.27;;
66380;SDS011;53177;52.648;1.214;2023-01-24T15:44:41;18.23;;;8.25;;
66380;SDS011;53177;52.648;1.214;2023-01-24T15:47:16;16.42;;;7.75;;
66380;SDS011;53177;52.648;1.214;2023-01-24T15:50:03;17.07;;;7.83;;
66380;SDS011;53177;52.648;1.214;2023-01-24T15:53:33;16.98;;;8.57;;
66380;SDS011;53177;52.648;1.214;2023-01-24T15:55:53;16.90;;;8.52;;
66380;SDS011;53177;52.648;1.214;2023-01-24T15:58:20;17.50;;;8.20;;
66380;SDS011;53177;52.648;1.214;2023-01-24T16:00:52;15.03;;;7.67;;
66380;SDS011;53177;52.648;1.214;2023-01-24T16:03:19;17.98;;;8.15;;
66380;SDS011;53177;52.648;1.214;2023-01-24T16:05:45;17.73;;;7.97;;
66380;SDS011;53177;52.648;1.214;2023-01-24T16:08:11;16.80;;;8.10;;
66380;SDS011;53177;52.648;1.214;2023-01-24T16:10:37;17.30;;;7.93;;
66380;SDS011;53177;52.648;1.214;2023-01-24T16:13:10;17.15;;;8.75;;
66380;SDS011;53177;52.648;1.214;2023-01-24T16:15:58;18.73;;;8.73;;
66380;SDS011;53177;52.648;1.214;2023-01-24T16:18:25;18.88;;;9.25;;
66380;SDS011;53177;52.648;1.214;2023-01-24T16:20:52;29.50;;;14.80;;
66380;SDS011;53177;52.648;1.214;2023-01-24T16:23:17;33.90;;;15.27;;
66380;SDS011;53177;52.648;1.214;2023-01-24T16:25:43;31.40;;;16.33;;
66380;SDS011;53177;52.648;1.214;2023-01-24T16:28:15;35.88;;;16.42;;
66380;SDS011;53177;52.648;1.214;2023-01-24T16:30:44;30.85;;;15.35;;
66380;SDS011;53177;52.648;1.214;2023-01-24T16:33:09;33.17;;;15.47;;
66380;SDS011;53177;52.648;1.214;2023-01-24T16:35:35;29.97;;;14.77;;
66380;SDS011;53177;52.648;1.214;2023-01-24T16:38:00;30.30;;;14.70;;
66380;SDS011;53177;52.648;1.214;2023-01-24T16:40:26;27.00;;;13.63;;
66380;SDS011;53177;52.648;1.214;2023-01-24T16:42:52;25.05;;;12.10;;
66380;SDS011;53177;52.648;1.214;2023-01-24T16:45:19;28.33;;;12.93;;